sensor_id;sensor_type;location;lat;lon;timestamp;temperature;humidity
73688;SHT30;62257;48.376;-4.378;2022-12-07T00:01:13;5.51;80.47
73688;SHT30;62257;48.376;-4.378;2022-12-07T00:03:40;5.45;80.20
73688;SHT30;62257;48.376;-4.378;2022-12-07T00:06:07;5.41;80.11
73688;SHT30;62257;48.376;-4.378;2022-12-07T00:08:34;5.38;80.45
73688;SHT30;62257;48.376;-4.378;2022-12-07T00:11:04;5.35;80.01
73688;SHT30;62257;48.376;-4.378;2022-12-07T00:13:30;5.34;78.39
73688;SHT30;62257;48.376;-4.378;2022-12-07T00:15:55;5.38;78.60
73688;SHT30;62257;48.376;-4.378;2022-12-07T00:18:21;5.44;79.26
73688;SHT30;62257;48.376;-4.378;2022-12-07T00:20:46;5.55;79.15
73688;SHT30;62257;48.376;-4.378;2022-12-07T00:23:12;5.65;76.67
73688;SHT30;62257;48.376;-4.378;2022-12-07T00:25:37;5.79;76.46
73688;SHT30;62257;48.376;-4.378;2022-12-07T00:28:02;5.86;75.19
73688;SHT30;62257;48.376;-4.378;2022-12-07T00:30:28;6.00;75.85
73688;SHT30;62257;48.376;-4.378;2022-12-07T00:32:53;6.09;76.05
73688;SHT30;62257;48.376;-4.378;2022-12-07T00:35:19;6.17;76.39
73688;SHT30;62257;48.376;-4.378;2022-12-07T00:37:44;6.21;74.51
73688;SHT30;62257;48.376;-4.378;2022-12-07T00:40:10;6.28;75.45
73688;SHT30;62257;48.376;-4.378;2022-12-07T00:42:35;6.34;75.09
73688;SHT30;62257;48.376;-4.378;2022-12-07T00:45:01;6.37;73.30
73688;SHT30;62257;48.376;-4.378;2022-12-07T00:47:26;6.44;74.18
73688;SHT30;62257;48.376;-4.378;2022-12-07T00:49:51;6.46;73.16
73688;SHT30;62257;48.376;-4.378;2022-12-07T00:52:17;6.49;72.85
73688;SHT30;62257;48.376;-4.378;2022-12-07T00:54:42;6.51;73.36
73688;SHT30;62257;48.376;-4.378;2022-12-07T00:57:07;6.52;73.79
73688;SHT30;62257;48.376;-4.378;2022-12-07T00:59:33;6.55;74.02
73688;SHT30;62257;48.376;-4.378;2022-12-07T01:01:58;6.56;72.92
73688;SHT30;62257;48.376;-4.378;2022-12-07T01:04:24;6.56;73.40
73688;SHT30;62257;48.376;-4.378;2022-12-07T01:06:49;6.56;72.89
73688;SHT30;62257;48.376;-4.378;2022-12-07T01:09:15;6.61;73.45
73688;SHT30;62257;48.376;-4.378;2022-12-07T01:11:40;6.59;72.27
73688;SHT30;62257;48.376;-4.378;2022-12-07T01:14:05;6.55;72.62
73688;SHT30;62257;48.376;-4.378;2022-12-07T01:16:32;6.55;72.41
73688;SHT30;62257;48.376;-4.378;2022-12-07T01:18:59;6.48;72.49
73688;SHT30;62257;48.376;-4.378;2022-12-07T01:21:27;6.44;72.20
73688;SHT30;62257;48.376;-4.378;2022-12-07T01:23:53;6.44;72.76
73688;SHT30;62257;48.376;-4.378;2022-12-07T01:26:21;6.42;72.53
73688;SHT30;62257;48.376;-4.378;2022-12-07T01:28:47;6.40;72.61
73688;SHT30;62257;48.376;-4.378;2022-12-07T01:31:15;6.44;72.75
73688;SHT30;62257;48.376;-4.378;2022-12-07T01:33:43;6.44;72.52
73688;SHT30;62257;48.376;-4.378;2022-12-07T01:38:37;6.45;73.12
73688;SHT30;62257;48.376;-4.378;2022-12-07T01:41:02;6.44;72.83
73688;SHT30;62257;48.376;-4.378;2022-12-07T01:43:33;6.44;72.17
73688;SHT30;62257;48.376;-4.378;2022-12-07T01:45:59;6.44;73.31
73688;SHT30;62257;48.376;-4.378;2022-12-07T01:48:32;6.33;72.71
73688;SHT30;62257;48.376;-4.378;2022-12-07T01:51:03;6.20;72.58
73688;SHT30;62257;48.376;-4.378;2022-12-07T01:53:31;6.07;73.41
73688;SHT30;62257;48.376;-4.378;2022-12-07T01:55:59;5.99;74.67
73688;SHT30;62257;48.376;-4.378;2022-12-07T01:58:25;5.95;74.46
73688;SHT30;62257;48.376;-4.378;2022-12-07T02:00:50;5.83;74.48
73688;SHT30;62257;48.376;-4.378;2022-12-07T02:03:21;5.76;74.55
73688;SHT30;62257;48.376;-4.378;2022-12-07T02:05:49;5.70;74.61
73688;SHT30;62257;48.376;-4.378;2022-12-07T02:08:15;5.62;74.27
73688;SHT30;62257;48.376;-4.378;2022-12-07T02:10:41;5.56;75.34
73688;SHT30;62257;48.376;-4.378;2022-12-07T02:13:24;5.48;76.55
73688;SHT30;62257;48.376;-4.378;2022-12-07T02:24:14;5.30;77.12
73688;SHT30;62257;48.376;-4.378;2022-12-07T02:29:23;5.21;76.86
73688;SHT30;62257;48.376;-4.378;2022-12-07T02:32:17;5.19;76.76
73688;SHT30;62257;48.376;-4.378;2022-12-07T02:34:51;5.23;77.45
73688;SHT30;62257;48.376;-4.378;2022-12-07T02:39:53;5.26;77.20
73688;SHT30;62257;48.376;-4.378;2022-12-07T02:42:31;5.30;76.87
73688;SHT30;62257;48.376;-4.378;2022-12-07T02:44:59;5.30;76.02
73688;SHT30;62257;48.376;-4.378;2022-12-07T02:47:28;5.31;76.64
73688;SHT30;62257;48.376;-4.378;2022-12-07T02:49:55;5.35;77.07
73688;SHT30;62257;48.376;-4.378;2022-12-07T02:52:20;5.44;75.77
73688;SHT30;62257;48.376;-4.378;2022-12-07T02:54:46;5.49;75.58
73688;SHT30;62257;48.376;-4.378;2022-12-07T02:57:34;5.56;75.42
73688;SHT30;62257;48.376;-4.378;2022-12-07T03:00:11;5.58;75.22
73688;SHT30;62257;48.376;-4.378;2022-12-07T03:08:13;5.75;75.18
73688;SHT30;62257;48.376;-4.378;2022-12-07T03:11:06;5.76;74.52
73688;SHT30;62257;48.376;-4.378;2022-12-07T03:13:48;5.85;74.17
73688;SHT30;62257;48.376;-4.378;2022-12-07T03:16:23;5.92;74.88
73688;SHT30;62257;48.376;-4.378;2022-12-07T03:19:07;5.95;73.66
73688;SHT30;62257;48.376;-4.378;2022-12-07T03:21:38;6.04;73.90
73688;SHT30;62257;48.376;-4.378;2022-12-07T03:24:09;6.09;75.06
73688;SHT30;62257;48.376;-4.378;2022-12-07T03:26:41;6.17;74.70
73688;SHT30;62257;48.376;-4.378;2022-12-07T03:29:14;6.24;73.30
73688;SHT30;62257;48.376;-4.378;2022-12-07T03:31:48;6.27;74.23
73688;SHT30;62257;48.376;-4.378;2022-12-07T03:34:50;6.28;73.99
73688;SHT30;62257;48.376;-4.378;2022-12-07T03:37:40;6.34;74.08
73688;SHT30;62257;48.376;-4.378;2022-12-07T03:40:17;6.35;72.80
73688;SHT30;62257;48.376;-4.378;2022-12-07T03:42:45;6.37;73.75
73688;SHT30;62257;48.376;-4.378;2022-12-07T03:45:12;6.37;72.83
73688;SHT30;62257;48.376;-4.378;2022-12-07T03:47:47;6.35;73.00
73688;SHT30;62257;48.376;-4.378;2022-12-07T03:53:22;6.40;71.88
73688;SHT30;62257;48.376;-4.378;2022-12-07T03:55:50;6.42;71.92
73688;SHT30;62257;48.376;-4.378;2022-12-07T03:58:19;6.46;71.69
73688;SHT30;62257;48.376;-4.378;2022-12-07T04:00:47;6.49;70.94
73688;SHT30;62257;48.376;-4.378;2022-12-07T04:03:12;6.49;71.33
73688;SHT30;62257;48.376;-4.378;2022-12-07T04:05:38;6.54;71.76
73688;SHT30;62257;48.376;-4.378;2022-12-07T04:08:04;6.52;70.74
73688;SHT30;62257;48.376;-4.378;2022-12-07T04:10:30;6.56;71.13
73688;SHT30;62257;48.376;-4.378;2022-12-07T04:12:55;6.55;70.57
73688;SHT30;62257;48.376;-4.378;2022-12-07T04:15:21;6.59;71.20
73688;SHT30;62257;48.376;-4.378;2022-12-07T04:17:46;6.62;72.57
73688;SHT30;62257;48.376;-4.378;2022-12-07T04:20:12;6.67;73.32
73688;SHT30;62257;48.376;-4.378;2022-12-07T04:22:38;6.71;72.62
73688;SHT30;62257;48.376;-4.378;2022-12-07T04:25:03;6.75;73.69
73688;SHT30;62257;48.376;-4.378;2022-12-07T04:27:29;6.76;72.21
73688;SHT30;62257;48.376;-4.378;2022-12-07T04:29:54;6.79;71.09
73688;SHT30;62257;48.376;-4.378;2022-12-07T04:32:21;6.80;70.15
73688;SHT30;62257;48.376;-4.378;2022-12-07T04:34:46;6.79;71.44
73688;SHT30;62257;48.376;-4.378;2022-12-07T04:37:12;6.83;71.47
73688;SHT30;62257;48.376;-4.378;2022-12-07T04:39:37;6.80;70.88
73688;SHT30;62257;48.376;-4.378;2022-12-07T04:42:03;6.85;71.18
73688;SHT30;62257;48.376;-4.378;2022-12-07T04:44:29;6.85;70.27
73688;SHT30;62257;48.376;-4.378;2022-12-07T04:46:54;6.85;70.17
73688;SHT30;62257;48.376;-4.378;2022-12-07T04:49:21;6.82;68.76
73688;SHT30;62257;48.376;-4.378;2022-12-07T04:51:46;6.85;69.84
73688;SHT30;62257;48.376;-4.378;2022-12-07T04:54:13;6.83;69.59
73688;SHT30;62257;48.376;-4.378;2022-12-07T04:56:39;6.85;70.56
73688;SHT30;62257;48.376;-4.378;2022-12-07T04:59:05;6.86;71.04
73688;SHT30;62257;48.376;-4.378;2022-12-07T05:01:30;6.82;72.67
73688;SHT30;62257;48.376;-4.378;2022-12-07T05:03:56;6.75;71.33
73688;SHT30;62257;48.376;-4.378;2022-12-07T05:06:22;6.73;72.40
73688;SHT30;62257;48.376;-4.378;2022-12-07T05:08:47;6.72;71.63
73688;SHT30;62257;48.376;-4.378;2022-12-07T05:11:14;6.71;70.76
73688;SHT30;62257;48.376;-4.378;2022-12-07T05:14:00;6.65;72.97
73688;SHT30;62257;48.376;-4.378;2022-12-07T05:16:26;6.67;73.31
73688;SHT30;62257;48.376;-4.378;2022-12-07T05:18:51;6.67;74.06
73688;SHT30;62257;48.376;-4.378;2022-12-07T05:21:17;6.65;69.86
73688;SHT30;62257;48.376;-4.378;2022-12-07T05:23:42;6.59;69.92
73688;SHT30;62257;48.376;-4.378;2022-12-07T05:26:07;6.56;69.40
73688;SHT30;62257;48.376;-4.378;2022-12-07T05:28:33;6.51;70.10
73688;SHT30;62257;48.376;-4.378;2022-12-07T05:30:58;6.46;70.54
73688;SHT30;62257;48.376;-4.378;2022-12-07T05:33:24;6.38;70.35
73688;SHT30;62257;48.376;-4.378;2022-12-07T05:35:49;6.28;68.13
73688;SHT30;62257;48.376;-4.378;2022-12-07T05:38:14;6.23;69.23
73688;SHT30;62257;48.376;-4.378;2022-12-07T05:40:40;6.18;69.57
73688;SHT30;62257;48.376;-4.378;2022-12-07T05:43:05;6.07;69.75
73688;SHT30;62257;48.376;-4.378;2022-12-07T05:45:30;5.97;72.43
73688;SHT30;62257;48.376;-4.378;2022-12-07T05:47:56;5.89;73.44
73688;SHT30;62257;48.376;-4.378;2022-12-07T05:50:21;5.77;73.83
73688;SHT30;62257;48.376;-4.378;2022-12-07T05:52:47;5.68;71.88
73688;SHT30;62257;48.376;-4.378;2022-12-07T05:55:12;5.59;71.89
73688;SHT30;62257;48.376;-4.378;2022-12-07T05:57:38;5.55;72.04
73688;SHT30;62257;48.376;-4.378;2022-12-07T06:00:04;5.52;71.44
73688;SHT30;62257;48.376;-4.378;2022-12-07T06:02:30;5.51;72.74
73688;SHT30;62257;48.376;-4.378;2022-12-07T06:04:55;5.56;72.49
73688;SHT30;62257;48.376;-4.378;2022-12-07T06:07:21;5.59;70.61
73688;SHT30;62257;48.376;-4.378;2022-12-07T06:09:46;5.69;70.54
73688;SHT30;62257;48.376;-4.378;2022-12-07T06:12:12;5.73;70.14
73688;SHT30;62257;48.376;-4.378;2022-12-07T06:14:57;5.85;70.43
73688;SHT30;62257;48.376;-4.378;2022-12-07T06:17:22;5.99;70.32
73688;SHT30;62257;48.376;-4.378;2022-12-07T06:19:47;6.03;69.24
73688;SHT30;62257;48.376;-4.378;2022-12-07T06:22:13;6.16;69.53
73688;SHT30;62257;48.376;-4.378;2022-12-07T06:24:39;6.18;68.60
73688;SHT30;62257;48.376;-4.378;2022-12-07T06:27:05;6.30;67.89
73688;SHT30;62257;48.376;-4.378;2022-12-07T06:29:31;6.35;69.52
73688;SHT30;62257;48.376;-4.378;2022-12-07T06:31:56;6.41;69.92
73688;SHT30;62257;48.376;-4.378;2022-12-07T06:34:23;6.46;68.80
73688;SHT30;62257;48.376;-4.378;2022-12-07T06:36:49;6.52;68.84
73688;SHT30;62257;48.376;-4.378;2022-12-07T06:39:18;6.55;68.28
73688;SHT30;62257;48.376;-4.378;2022-12-07T06:41:44;6.55;68.26
73688;SHT30;62257;48.376;-4.378;2022-12-07T06:44:09;6.62;67.18
73688;SHT30;62257;48.376;-4.378;2022-12-07T06:46:34;6.62;67.60
73688;SHT30;62257;48.376;-4.378;2022-12-07T06:49:04;6.64;66.28
73688;SHT30;62257;48.376;-4.378;2022-12-07T06:51:30;6.64;66.29
73688;SHT30;62257;48.376;-4.378;2022-12-07T06:53:55;6.67;66.08
73688;SHT30;62257;48.376;-4.378;2022-12-07T06:56:21;6.67;65.87
73688;SHT30;62257;48.376;-4.378;2022-12-07T06:58:47;6.68;67.17
73688;SHT30;62257;48.376;-4.378;2022-12-07T07:01:15;6.69;66.71
73688;SHT30;62257;48.376;-4.378;2022-12-07T07:03:40;6.71;66.80
73688;SHT30;62257;48.376;-4.378;2022-12-07T07:06:06;6.72;67.23
73688;SHT30;62257;48.376;-4.378;2022-12-07T07:08:35;6.71;66.06
73688;SHT30;62257;48.376;-4.378;2022-12-07T07:11:01;6.67;65.24
73688;SHT30;62257;48.376;-4.378;2022-12-07T07:13:27;6.69;66.61
73688;SHT30;62257;48.376;-4.378;2022-12-07T07:15:53;6.68;70.78
73688;SHT30;62257;48.376;-4.378;2022-12-07T07:18:18;6.68;71.85
73688;SHT30;62257;48.376;-4.378;2022-12-07T07:20:44;6.65;72.09
73688;SHT30;62257;48.376;-4.378;2022-12-07T07:23:09;6.65;72.80
73688;SHT30;62257;48.376;-4.378;2022-12-07T07:25:35;6.71;72.78
73688;SHT30;62257;48.376;-4.378;2022-12-07T07:28:00;6.71;73.06
73688;SHT30;62257;48.376;-4.378;2022-12-07T07:30:26;6.73;73.03
73688;SHT30;62257;48.376;-4.378;2022-12-07T07:32:51;6.76;71.50
73688;SHT30;62257;48.376;-4.378;2022-12-07T07:35:20;6.79;70.78
73688;SHT30;62257;48.376;-4.378;2022-12-07T07:37:46;6.79;70.10
73688;SHT30;62257;48.376;-4.378;2022-12-07T07:40:11;6.83;66.69
73688;SHT30;62257;48.376;-4.378;2022-12-07T07:42:37;6.85;68.68
73688;SHT30;62257;48.376;-4.378;2022-12-07T07:45:02;6.86;67.97
73688;SHT30;62257;48.376;-4.378;2022-12-07T07:47:28;6.86;69.96
73688;SHT30;62257;48.376;-4.378;2022-12-07T07:49:54;6.88;70.79
73688;SHT30;62257;48.376;-4.378;2022-12-07T07:52:19;6.86;71.24
73688;SHT30;62257;48.376;-4.378;2022-12-07T07:54:44;6.85;70.91
73688;SHT30;62257;48.376;-4.378;2022-12-07T07:57:10;6.78;71.15
73688;SHT30;62257;48.376;-4.378;2022-12-07T07:59:35;6.68;71.03
73688;SHT30;62257;48.376;-4.378;2022-12-07T08:02:01;6.65;72.02
73688;SHT30;62257;48.376;-4.378;2022-12-07T08:04:26;6.62;72.61
73688;SHT30;62257;48.376;-4.378;2022-12-07T08:06:51;6.58;72.36
73688;SHT30;62257;48.376;-4.378;2022-12-07T08:09:17;6.52;71.90
73688;SHT30;62257;48.376;-4.378;2022-12-07T08:11:42;6.49;72.37
73688;SHT30;62257;48.376;-4.378;2022-12-07T08:14:10;6.51;72.18
73688;SHT30;62257;48.376;-4.378;2022-12-07T08:16:35;6.54;72.52
73688;SHT30;62257;48.376;-4.378;2022-12-07T08:19:00;6.54;72.25
73688;SHT30;62257;48.376;-4.378;2022-12-07T08:21:26;6.48;71.72
73688;SHT30;62257;48.376;-4.378;2022-12-07T08:23:51;6.52;71.97
73688;SHT30;62257;48.376;-4.378;2022-12-07T08:26:17;6.55;71.89
73688;SHT30;62257;48.376;-4.378;2022-12-07T08:28:43;6.58;71.12
73688;SHT30;62257;48.376;-4.378;2022-12-07T08:31:16;6.64;72.58
73688;SHT30;62257;48.376;-4.378;2022-12-07T08:33:41;6.72;71.88
73688;SHT30;62257;48.376;-4.378;2022-12-07T08:36:09;6.76;69.93
73688;SHT30;62257;48.376;-4.378;2022-12-07T08:38:36;6.85;71.63
73688;SHT30;62257;48.376;-4.378;2022-12-07T08:41:02;6.93;70.49
73688;SHT30;62257;48.376;-4.378;2022-12-07T08:43:27;6.95;68.40
73688;SHT30;62257;48.376;-4.378;2022-12-07T08:48:40;7.10;68.95
73688;SHT30;62257;48.376;-4.378;2022-12-07T08:51:07;7.14;67.64
73688;SHT30;62257;48.376;-4.378;2022-12-07T08:53:33;7.23;67.57
73688;SHT30;62257;48.376;-4.378;2022-12-07T08:55:59;7.37;67.44
73688;SHT30;62257;48.376;-4.378;2022-12-07T08:58:25;7.44;69.05
73688;SHT30;62257;48.376;-4.378;2022-12-07T09:00:50;7.52;69.14
73688;SHT30;62257;48.376;-4.378;2022-12-07T09:03:16;7.58;66.32
73688;SHT30;62257;48.376;-4.378;2022-12-07T09:05:41;7.61;65.86
73688;SHT30;62257;48.376;-4.378;2022-12-07T09:08:07;7.64;66.48
73688;SHT30;62257;48.376;-4.378;2022-12-07T09:10:33;7.64;67.12
73688;SHT30;62257;48.376;-4.378;2022-12-07T09:12:58;7.69;68.27
73688;SHT30;62257;48.376;-4.378;2022-12-07T09:15:27;7.72;66.81
73688;SHT30;62257;48.376;-4.378;2022-12-07T09:17:53;7.75;68.04
73688;SHT30;62257;48.376;-4.378;2022-12-07T09:20:18;7.76;66.86
73688;SHT30;62257;48.376;-4.378;2022-12-07T09:22:44;7.79;67.21
73688;SHT30;62257;48.376;-4.378;2022-12-07T09:25:09;7.81;67.47
73688;SHT30;62257;48.376;-4.378;2022-12-07T09:27:34;7.82;68.23
73688;SHT30;62257;48.376;-4.378;2022-12-07T09:30:00;7.83;67.95
73688;SHT30;62257;48.376;-4.378;2022-12-07T09:32:26;7.86;69.10
73688;SHT30;62257;48.376;-4.378;2022-12-07T09:34:51;7.89;68.30
73688;SHT30;62257;48.376;-4.378;2022-12-07T09:37:17;7.97;68.62
73688;SHT30;62257;48.376;-4.378;2022-12-07T09:39:42;8.06;69.68
73688;SHT30;62257;48.376;-4.378;2022-12-07T09:42:08;8.12;69.09
73688;SHT30;62257;48.376;-4.378;2022-12-07T09:44:36;8.17;68.72
73688;SHT30;62257;48.376;-4.378;2022-12-07T09:47:01;8.26;69.18
73688;SHT30;62257;48.376;-4.378;2022-12-07T09:49:29;8.37;69.05
73688;SHT30;62257;48.376;-4.378;2022-12-07T09:52:17;8.42;67.15
73688;SHT30;62257;48.376;-4.378;2022-12-07T09:54:46;8.52;68.97
73688;SHT30;62257;48.376;-4.378;2022-12-07T09:57:12;8.58;68.81
73688;SHT30;62257;48.376;-4.378;2022-12-07T09:59:38;8.57;68.09
73688;SHT30;62257;48.376;-4.378;2022-12-07T10:04:49;8.73;68.74
73688;SHT30;62257;48.376;-4.378;2022-12-07T10:07:14;8.79;67.77
73688;SHT30;62257;48.376;-4.378;2022-12-07T10:09:40;8.86;68.13
73688;SHT30;62257;48.376;-4.378;2022-12-07T10:14:33;8.89;67.41
73688;SHT30;62257;48.376;-4.378;2022-12-07T10:17:00;8.90;66.80
73688;SHT30;62257;48.376;-4.378;2022-12-07T10:19:31;8.99;67.61
73688;SHT30;62257;48.376;-4.378;2022-12-07T10:22:12;9.06;68.27
73688;SHT30;62257;48.376;-4.378;2022-12-07T10:24:39;9.07;68.16
73688;SHT30;62257;48.376;-4.378;2022-12-07T10:27:18;9.12;68.12
73688;SHT30;62257;48.376;-4.378;2022-12-07T10:29:50;9.06;64.59
73688;SHT30;62257;48.376;-4.378;2022-12-07T10:34:42;8.99;67.37
73688;SHT30;62257;48.376;-4.378;2022-12-07T10:39:52;9.07;66.79
73688;SHT30;62257;48.376;-4.378;2022-12-07T10:42:27;9.13;67.77
73688;SHT30;62257;48.376;-4.378;2022-12-07T10:45:09;9.22;65.33
73688;SHT30;62257;48.376;-4.378;2022-12-07T10:50:12;9.30;66.74
73688;SHT30;62257;48.376;-4.378;2022-12-07T10:58:14;9.52;67.65
73688;SHT30;62257;48.376;-4.378;2022-12-07T11:00:54;9.61;66.81
73688;SHT30;62257;48.376;-4.378;2022-12-07T11:06:35;9.72;67.57
73688;SHT30;62257;48.376;-4.378;2022-12-07T11:17:14;9.98;66.13
73688;SHT30;62257;48.376;-4.378;2022-12-07T11:22:48;10.13;65.46
73688;SHT30;62257;48.376;-4.378;2022-12-07T11:25:24;10.20;65.25
73688;SHT30;62257;48.376;-4.378;2022-12-07T11:30:19;10.34;66.27
73688;SHT30;62257;48.376;-4.378;2022-12-07T11:35:57;10.47;66.39
73688;SHT30;62257;48.376;-4.378;2022-12-07T11:38:50;10.51;65.71
73688;SHT30;62257;48.376;-4.378;2022-12-07T11:41:23;10.60;65.58
73688;SHT30;62257;48.376;-4.378;2022-12-07T11:46:25;10.71;64.08
73688;SHT30;62257;48.376;-4.378;2022-12-07T11:49:03;10.77;63.90
73688;SHT30;62257;48.376;-4.378;2022-12-07T11:51:33;10.81;64.95
73688;SHT30;62257;48.376;-4.378;2022-12-07T11:54:05;10.85;64.77
73688;SHT30;62257;48.376;-4.378;2022-12-07T11:56:36;10.92;64.62
73688;SHT30;62257;48.376;-4.378;2022-12-07T11:59:13;10.95;62.72
73688;SHT30;62257;48.376;-4.378;2022-12-07T12:01:53;11.02;64.56
73688;SHT30;62257;48.376;-4.378;2022-12-07T12:04:34;11.05;64.35
73688;SHT30;62257;48.376;-4.378;2022-12-07T12:07:01;10.95;59.51
73688;SHT30;62257;48.376;-4.378;2022-12-07T12:09:32;10.79;61.03
73688;SHT30;62257;48.376;-4.378;2022-12-07T12:17:33;10.75;63.47
73688;SHT30;62257;48.376;-4.378;2022-12-07T12:22:47;10.86;64.83
73688;SHT30;62257;48.376;-4.378;2022-12-07T12:28:02;10.94;62.38
73688;SHT30;62257;48.376;-4.378;2022-12-07T12:30:36;10.95;64.30
73688;SHT30;62257;48.376;-4.378;2022-12-07T12:33:27;10.98;64.43
73688;SHT30;62257;48.376;-4.378;2022-12-07T12:46:54;10.89;61.53
73688;SHT30;62257;48.376;-4.378;2022-12-07T12:51:49;10.94;64.14
73688;SHT30;62257;48.376;-4.378;2022-12-07T12:59:31;10.95;62.87
73688;SHT30;62257;48.376;-4.378;2022-12-07T13:05:00;10.81;65.69
73688;SHT30;62257;48.376;-4.378;2022-12-07T13:15:40;10.77;66.62
73688;SHT30;62257;48.376;-4.378;2022-12-07T13:21:01;10.68;66.17
73688;SHT30;62257;48.376;-4.378;2022-12-07T13:26:23;10.63;65.37
73688;SHT30;62257;48.376;-4.378;2022-12-07T13:31:49;10.46;65.87
73688;SHT30;62257;48.376;-4.378;2022-12-07T13:34:41;10.48;68.55
73688;SHT30;62257;48.376;-4.378;2022-12-07T13:37:33;10.47;68.19
73688;SHT30;62257;48.376;-4.378;2022-12-07T13:40:18;10.48;68.96
73688;SHT30;62257;48.376;-4.378;2022-12-07T13:42:45;10.50;68.32
73688;SHT30;62257;48.376;-4.378;2022-12-07T13:45:30;10.54;68.34
73688;SHT30;62257;48.376;-4.378;2022-12-07T13:48:42;10.48;63.71
73688;SHT30;62257;48.376;-4.378;2022-12-07T13:51:17;10.41;65.30
73688;SHT30;62257;48.376;-4.378;2022-12-07T13:53:54;10.34;66.06
73688;SHT30;62257;48.376;-4.378;2022-12-07T13:56:22;10.28;67.22
73688;SHT30;62257;48.376;-4.378;2022-12-07T13:58:51;10.28;71.53
73688;SHT30;62257;48.376;-4.378;2022-12-07T14:01:17;10.23;69.49
73688;SHT30;62257;48.376;-4.378;2022-12-07T14:03:43;10.30;70.91
73688;SHT30;62257;48.376;-4.378;2022-12-07T14:06:13;10.29;66.61
73688;SHT30;62257;48.376;-4.378;2022-12-07T14:08:41;10.28;69.36
73688;SHT30;62257;48.376;-4.378;2022-12-07T14:11:17;10.26;68.74
73688;SHT30;62257;48.376;-4.378;2022-12-07T14:16:27;10.30;68.19
73688;SHT30;62257;48.376;-4.378;2022-12-07T14:18:54;10.33;68.98
73688;SHT30;62257;48.376;-4.378;2022-12-07T14:21:23;10.32;67.36
73688;SHT30;62257;48.376;-4.378;2022-12-07T14:24:15;10.30;69.48
73688;SHT30;62257;48.376;-4.378;2022-12-07T14:26:45;10.26;68.48
73688;SHT30;62257;48.376;-4.378;2022-12-07T14:31:52;10.16;70.06
73688;SHT30;62257;48.376;-4.378;2022-12-07T14:34:22;10.10;67.70
73688;SHT30;62257;48.376;-4.378;2022-12-07T14:36:48;10.08;69.04
73688;SHT30;62257;48.376;-4.378;2022-12-07T14:39:14;10.02;68.35
73688;SHT30;62257;48.376;-4.378;2022-12-07T14:41:39;10.03;69.11
73688;SHT30;62257;48.376;-4.378;2022-12-07T14:44:22;9.98;70.36
73688;SHT30;62257;48.376;-4.378;2022-12-07T14:46:48;9.89;68.85
73688;SHT30;62257;48.376;-4.378;2022-12-07T14:49:14;9.83;69.86
73688;SHT30;62257;48.376;-4.378;2022-12-07T14:51:41;9.77;68.84
73688;SHT30;62257;48.376;-4.378;2022-12-07T14:54:16;9.72;69.13
73688;SHT30;62257;48.376;-4.378;2022-12-07T14:56:43;9.68;69.10
73688;SHT30;62257;48.376;-4.378;2022-12-07T14:59:09;9.68;70.46
73688;SHT30;62257;48.376;-4.378;2022-12-07T15:01:35;9.64;68.72
73688;SHT30;62257;48.376;-4.378;2022-12-07T15:04:01;9.59;70.51
73688;SHT30;62257;48.376;-4.378;2022-12-07T15:06:26;9.55;70.42
73688;SHT30;62257;48.376;-4.378;2022-12-07T15:08:51;9.50;70.02
73688;SHT30;62257;48.376;-4.378;2022-12-07T15:11:18;9.44;70.25
73688;SHT30;62257;48.376;-4.378;2022-12-07T15:13:43;9.37;70.53
73688;SHT30;62257;48.376;-4.378;2022-12-07T15:16:27;9.33;71.38
73688;SHT30;62257;48.376;-4.378;2022-12-07T15:18:53;9.24;70.92
73688;SHT30;62257;48.376;-4.378;2022-12-07T15:21:18;9.17;71.32
73688;SHT30;62257;48.376;-4.378;2022-12-07T15:23:46;9.16;71.61
73688;SHT30;62257;48.376;-4.378;2022-12-07T15:26:11;9.10;71.76
73688;SHT30;62257;48.376;-4.378;2022-12-07T15:28:37;9.07;72.10
73688;SHT30;62257;48.376;-4.378;2022-12-07T15:31:02;9.09;71.76
73688;SHT30;62257;48.376;-4.378;2022-12-07T15:33:28;9.03;72.25
73688;SHT30;62257;48.376;-4.378;2022-12-07T15:35:53;8.99;72.83
73688;SHT30;62257;48.376;-4.378;2022-12-07T15:38:19;8.98;73.12
73688;SHT30;62257;48.376;-4.378;2022-12-07T15:40:46;8.95;72.86
73688;SHT30;62257;48.376;-4.378;2022-12-07T15:43:12;8.88;73.28
73688;SHT30;62257;48.376;-4.378;2022-12-07T15:45:56;8.83;73.22
73688;SHT30;62257;48.376;-4.378;2022-12-07T15:48:21;8.78;73.06
73688;SHT30;62257;48.376;-4.378;2022-12-07T15:50:47;8.75;73.22
73688;SHT30;62257;48.376;-4.378;2022-12-07T15:53:12;8.69;73.65
73688;SHT30;62257;48.376;-4.378;2022-12-07T15:55:40;8.68;73.62
73688;SHT30;62257;48.376;-4.378;2022-12-07T15:58:06;8.60;73.08
73688;SHT30;62257;48.376;-4.378;2022-12-07T16:00:32;8.58;72.90
73688;SHT30;62257;48.376;-4.378;2022-12-07T16:02:57;8.52;74.01
73688;SHT30;62257;48.376;-4.378;2022-12-07T16:05:23;8.50;73.79
73688;SHT30;62257;48.376;-4.378;2022-12-07T16:07:48;8.47;74.71
73688;SHT30;62257;48.376;-4.378;2022-12-07T16:10:14;8.40;74.20
73688;SHT30;62257;48.376;-4.378;2022-12-07T16:12:39;8.30;73.85
73688;SHT30;62257;48.376;-4.378;2022-12-07T16:15:05;8.16;74.05
73688;SHT30;62257;48.376;-4.378;2022-12-07T16:17:31;8.02;74.69
73688;SHT30;62257;48.376;-4.378;2022-12-07T16:19:57;7.95;75.80
73688;SHT30;62257;48.376;-4.378;2022-12-07T16:22:23;7.79;75.80
73688;SHT30;62257;48.376;-4.378;2022-12-07T16:24:48;7.71;76.45
73688;SHT30;62257;48.376;-4.378;2022-12-07T16:27:14;7.59;76.23
73688;SHT30;62257;48.376;-4.378;2022-12-07T16:29:39;7.50;76.74
73688;SHT30;62257;48.376;-4.378;2022-12-07T16:32:05;7.44;77.07
73688;SHT30;62257;48.376;-4.378;2022-12-07T16:34:30;7.32;77.24
73688;SHT30;62257;48.376;-4.378;2022-12-07T16:36:56;7.26;77.61
73688;SHT30;62257;48.376;-4.378;2022-12-07T16:39:21;7.17;78.13
73688;SHT30;62257;48.376;-4.378;2022-12-07T16:41:46;7.13;78.63
73688;SHT30;62257;48.376;-4.378;2022-12-07T16:44:13;7.04;79.13
73688;SHT30;62257;48.376;-4.378;2022-12-07T16:46:39;6.96;79.02
73688;SHT30;62257;48.376;-4.378;2022-12-07T16:49:05;6.89;79.49
73688;SHT30;62257;48.376;-4.378;2022-12-07T16:51:31;6.82;79.80
73688;SHT30;62257;48.376;-4.378;2022-12-07T16:53:56;6.75;80.03
73688;SHT30;62257;48.376;-4.378;2022-12-07T16:56:22;6.71;80.40
73688;SHT30;62257;48.376;-4.378;2022-12-07T16:58:48;6.65;80.56
73688;SHT30;62257;48.376;-4.378;2022-12-07T17:01:21;6.64;80.90
73688;SHT30;62257;48.376;-4.378;2022-12-07T17:03:53;6.68;81.18
73688;SHT30;62257;48.376;-4.378;2022-12-07T17:06:22;6.71;80.90
73688;SHT30;62257;48.376;-4.378;2022-12-07T17:08:49;6.76;80.89
73688;SHT30;62257;48.376;-4.378;2022-12-07T17:11:20;6.79;80.84
73688;SHT30;62257;48.376;-4.378;2022-12-07T17:13:46;6.86;80.82
73688;SHT30;62257;48.376;-4.378;2022-12-07T17:16:30;6.93;80.60
73688;SHT30;62257;48.376;-4.378;2022-12-07T17:18:56;6.99;80.57
73688;SHT30;62257;48.376;-4.378;2022-12-07T17:21:22;7.03;80.17
73688;SHT30;62257;48.376;-4.378;2022-12-07T17:23:49;7.10;80.48
73688;SHT30;62257;48.376;-4.378;2022-12-07T17:26:17;7.16;80.33
73688;SHT30;62257;48.376;-4.378;2022-12-07T17:28:43;7.20;79.36
73688;SHT30;62257;48.376;-4.378;2022-12-07T17:31:10;7.24;79.68
73688;SHT30;62257;48.376;-4.378;2022-12-07T17:33:36;7.30;79.76
73688;SHT30;62257;48.376;-4.378;2022-12-07T17:36:12;7.35;79.64
73688;SHT30;62257;48.376;-4.378;2022-12-07T17:38:38;7.38;79.61